Time;durP1;ratioP1;P1;durP2;ratioP2;P2;SDS_P1;SDS_P2;PMS_P1;PMS_P2;Temp;Humidity;BMP_temperature;BMP_pressure;BME280_temperature;BME280_humidity;BME280_pressure;Samples;Min_cycle;Max_cycle;Signal;HPM_P1;HPM_P2
2022/09/05 00:00:18;;;;;;;2.10;1.40;;;18.80;82.50;;;;;;5051490;28;20044;-80
2022/09/05 00:02:49;;;;;;;2.05;1.02;;;18.70;82.50;;;;;;5055363;28;20051;-80
2022/09/05 00:05:39;;;;;;;2.20;1.40;;;18.70;82.30;;;;;;5055564;28;20046;-80
2022/09/05 00:08:36;;;;;;;2.63;1.40;;;18.70;83.50;;;;;;5071896;28;20162;-80
2022/09/05 00:11:19;;;;;;;2.67;1.65;;;18.60;83.60;;;;;;5105952;28;20037;-80
2022/09/05 00:14:03;;;;;;;2.50;1.60;;;18.60;83.40;;;;;;5055397;28;20094;-80
2022/09/05 00:16:41;;;;;;;2.55;1.73;;;18.60;83.20;;;;;;5055312;28;20051;-80
2022/09/05 00:19:30;;;;;;;2.75;1.52;;;18.60;83.90;;;;;;5088472;28;20040;-80
2022/09/05 00:22:23;;;;;;;2.00;1.40;;;18.60;84.20;;;;;;5063797;28;20057;-80
2022/09/05 00:25:04;;;;;;;2.30;1.60;;;18.50;84.20;;;;;;5088404;28;20362;-80
2022/09/05 00:27:42;;;;;;;4.03;1.88;;;18.50;83.70;;;;;;5055294;28;20734;-80
2022/09/05 00:30:15;;;;;;;2.15;1.50;;;18.40;84.00;;;;;;5105442;28;20048;-80
2022/09/05 00:32:46;;;;;;;2.88;1.40;;;18.40;83.60;;;;;;5054926;28;20036;-80
2022/09/05 00:35:41;;;;;;;2.65;1.38;;;18.40;84.00;;;;;;5071906;28;20127;-80
2022/09/05 00:38:19;;;;;;;2.92;1.60;;;18.40;84.90;;;;;;5054704;28;20114;-80
2022/09/05 00:40:50;;;;;;;2.75;1.58;;;18.40;84.60;;;;;;5055266;28;20076;-80
2022/09/05 00:43:21;;;;;;;2.85;1.90;;;18.40;84.20;;;;;;5105734;28;20062;-80
2022/09/05 00:46:13;;;;;;;2.40;1.90;;;18.30;84.10;;;;;;5105443;28;20555;-80
2022/09/05 00:49:27;;;;;;;2.78;1.75;;;18.30;85.30;;;;;;5071388;28;20044;-80
2022/09/05 00:52:05;;;;;;;2.92;1.70;;;18.20;86.00;;;;;;5071102;28;20040;-80
2022/09/05 00:54:42;;;;;;;2.85;1.77;;;18.20;85.10;;;;;;5105156;28;20041;-80
2022/09/05 00:57:29;;;;;;;2.90;1.55;;;18.20;85.40;;;;;;5071496;28;20051;-80
2022/09/05 01:00:18;;;;;;;2.85;1.45;;;18.20;86.00;;;;;;5054366;28;20036;-80
2022/09/05 01:02:50;;;;;;;2.35;1.45;;;18.20;86.10;;;;;;5054428;28;20040;-80
2022/09/05 01:05:24;;;;;;;2.38;1.55;;;18.10;85.10;;;;;;5071226;28;20040;-80
2022/09/05 01:08:26;;;;;;;2.85;1.77;;;18.10;85.50;;;;;;5071383;28;20104;-80
2022/09/05 01:11:18;;;;;;;2.60;1.70;;;18.20;86.30;;;;;;5104946;28;20047;-80
2022/09/05 01:13:58;;;;;;;2.63;1.75;;;18.10;86.10;;;;;;5104780;28;20036;-80
2022/09/05 01:17:10;;;;;;;2.38;1.50;;;18.10;85.20;;;;;;5088106;28;20123;-80
2022/09/05 01:19:52;;;;;;;3.22;1.83;;;18.10;86.90;;;;;;5054133;28;20071;-80
2022/09/05 01:22:34;;;;;;;2.67;1.80;;;18.10;85.90;;;;;;5071173;28;20494;-80
2022/09/05 01:25:05;;;;;;;3.50;1.80;;;18.10;86.60;;;;;;5070642;28;20048;-80
2022/09/05 01:27:50;;;;;;;2.47;1.65;;;18.00;85.70;;;;;;5087462;28;20052;-80
2022/09/05 01:30:25;;;;;;;2.42;1.48;;;18.00;86.30;;;;;;5104589;28;20045;-80
2022/09/05 01:33:24;;;;;;;2.97;1.80;;;18.00;86.00;;;;;;5104546;28;20041;-80
2022/09/05 01:36:11;;;;;;;2.58;1.65;;;18.00;87.00;;;;;;5070435;28;20510;-80
2022/09/05 01:38:43;;;;;;;3.22;1.80;;;18.00;86.20;;;;;;5053884;28;20782;-80
2022/09/05 01:41:32;;;;;;;3.15;1.77;;;18.00;86.20;;;;;;5070433;28;20044;-80
2022/09/05 01:44:15;;;;;;;2.85;1.77;;;17.90;86.70;;;;;;5053534;28;20083;-80
2022/09/05 01:47:16;;;;;;;3.60;1.88;;;17.90;86.80;;;;;;5086975;28;20474;-80
2022/09/05 01:50:05;;;;;;;3.33;1.92;;;17.80;87.70;;;;;;5012251;28;20582;-80
2022/09/05 01:52:47;;;;;;;3.17;1.73;;;17.90;87.20;;;;;;5066844;28;20059;-80
2022/09/05 01:55:21;;;;;;;2.75;1.67;;;17.90;86.30;;;;;;5053719;28;20123;-80
2022/09/05 01:58:08;;;;;;;4.30;2.33;;;17.90;86.70;;;;;;5087336;28;20041;-80
2022/09/05 02:00:48;;;;;;;3.55;1.80;;;17.80;86.40;;;;;;5069928;28;20072;-80
2022/09/05 02:03:22;;;;;;;2.50;1.80;;;17.80;87.20;;;;;;5069744;28;20078;-80
2022/09/05 02:05:55;;;;;;;3.92;2.30;;;17.90;86.60;;;;;;5070005;28;20080;-80
2022/09/05 02:08:38;;;;;;;4.55;2.40;;;17.80;86.40;;;;;;5069457;28;20171;-80
2022/09/05 02:11:11;;;;;;;3.55;2.15;;;17.80;86.50;;;;;;5052862;28;20138;-80
2022/09/05 02:13:57;;;;;;;3.17;1.80;;;17.80;86.50;;;;;;5053216;28;20055;-80
2022/09/05 02:16:23;;;;;;;;;;;17.70;86.50;;;;;;5070002;28;20037;-80
2022/09/05 02:19:07;;;;;;;;;;;17.70;89.20;;;;;;5053276;28;19916;-80
2022/09/05 02:21:34;;;;;;;4.03;2.13;;;17.70;89.60;;;;;;5069691;28;20389;-80
2022/09/05 02:24:13;;;;;;;3.75;2.00;;;17.70;86.90;;;;;;5102337;28;20070;-80
2022/09/05 02:27:09;;;;;;;3.70;1.95;;;17.60;86.90;;;;;;5069725;28;20043;-80
2022/09/05 02:30:07;;;;;;;2.57;1.70;;;17.60;87.60;;;;;;5069124;28;20040;-80
2022/09/05 02:32:35;;;;;;;3.40;1.98;;;17.60;87.80;;;;;;5069560;28;20282;-80
2022/09/05 02:35:22;;;;;;;10.02;2.22;;;17.60;87.40;;;;;;5069224;28;20367;-80
2022/09/05 02:37:56;;;;;;;2.95;2.03;;;17.50;88.30;;;;;;5052755;28;20037;-80
2022/09/05 02:40:37;;;;;;;3.30;2.03;;;17.40;87.60;;;;;;5102896;28;20040;-80
2022/09/05 02:43:24;;;;;;;2.67;1.92;;;17.50;88.20;;;;;;5068968;28;20061;-80
2022/09/05 02:45:54;;;;;;;3.22;2.08;;;17.50;88.40;;;;;;5069194;28;20032;-80
2022/09/05 02:48:35;;;;;;;7.05;2.28;;;17.40;88.00;;;;;;5069068;28;20083;-80
2022/09/05 02:51:00;;;;;;;3.20;1.98;;;17.40;88.10;;;;;;5085323;28;20040;-80
2022/09/05 02:53:26;;;;;;;3.80;2.42;;;17.40;87.90;;;;;;5069043;28;20093;-80
2022/09/05 02:56:16;;;;;;;3.63;2.00;;;17.40;87.90;;;;;;5069142;28;20036;-80
2022/09/05 02:58:45;;;;;;;6.53;2.60;;;17.40;88.40;;;;;;5052425;28;20067;-80
2022/09/05 03:01:19;;;;;;;3.92;2.13;;;17.40;87.90;;;;;;5068768;28;20420;-80
2022/09/05 03:03:53;;;;;;;3.28;2.50;;;17.40;87.90;;;;;;5070194;28;20091;-80
2022/09/05 03:06:33;;;;;;;3.75;2.20;;;17.40;88.10;;;;;;5103001;28;20470;-80
2022/09/05 03:09:35;;;;;;;3.58;2.33;;;17.40;88.00;;;;;;5102677;28;20481;-80
2022/09/05 03:12:45;;;;;;;2.72;2.10;;;17.40;88.90;;;;;;5051793;28;20494;-80
2022/09/05 03:15:30;;;;;;;3.65;2.40;;;17.30;89.00;;;;;;5068688;28;20117;-80
2022/09/05 03:18:16;;;;;;;3.08;1.90;;;17.30;87.90;;;;;;5069062;28;20489;-80
2022/09/05 03:21:19;;;;;;;4.60;2.30;;;17.30;88.30;;;;;;5102661;28;20462;-80
2022/09/05 03:24:16;;;;;;;4.88;2.33;;;17.30;88.80;;;;;;5068711;28;20061;-80
2022/09/05 03:26:57;;;;;;;4.03;2.17;;;17.30;88.50;;;;;;5068328;28;20048;-80
2022/09/05 03:29:28;;;;;;;3.53;2.22;;;17.30;88.50;;;;;;5068361;28;20040;-80
2022/09/05 03:32:09;;;;;;;3.75;2.50;;;17.30;88.20;;;;;;5068578;28;20177;-80
2022/09/05 03:34:38;;;;;;;4.75;2.78;;;17.30;88.40;;;;;;5085614;28;20039;-80
2022/09/05 03:37:17;;;;;;;4.65;2.53;;;17.30;88.00;;;;;;5071196;28;20340;-80
2022/09/05 03:39:55;;;;;;;4.07;2.30;;;17.30;88.60;;;;;;5089517;28;20505;-80
2022/09/05 03:42:58;;;;;;;4.15;2.47;;;17.30;88.20;;;;;;5089476;28;20040;-80
2022/09/05 03:45:59;;;;;;;3.42;2.72;;;17.30;88.70;;;;;;5072505;28;20056;-80
2022/09/05 03:48:46;;;;;;;3.55;2.50;;;17.30;89.00;;;;;;5072836;28;20450;-80
2022/09/05 03:51:38;;;;;;;4.00;2.78;;;17.20;88.90;;;;;;5072655;28;20051;-80
2022/09/05 03:54:10;;;;;;;3.42;2.40;;;17.20;88.80;;;;;;5106327;28;20093;-80
2022/09/05 03:56:44;;;;;;;4.65;2.78;;;17.20;88.10;;;;;;5089360;28;20133;-80
2022/09/05 03:59:47;;;;;;;3.60;2.15;;;17.10;88.30;;;;;;5072582;28;20045;-80
2022/09/05 04:02:25;;;;;;;3.97;2.60;;;17.10;89.30;;;;;;5072245;28;20052;-80
2022/09/05 04:05:07;;;;;;;3.80;2.58;;;17.00;88.80;;;;;;5106134;28;20040;-80
2022/09/05 04:07:44;;;;;;;4.72;2.85;;;17.00;89.20;;;;;;5072315;28;20451;-80
2022/09/05 04:10:30;;;;;;;3.35;2.40;;;17.00;89.00;;;;;;5071802;28;20048;-80
2022/09/05 04:13:00;;;;;;;;;;;16.90;89.40;;;;;;5072275;28;20124;-80
2022/09/05 04:15:25;;;;;;;4.18;2.55;;;16.90;90.70;;;;;;5072253;28;20263;-80
2022/09/05 04:17:56;;;;;;;4.95;2.95;;;16.90;89.30;;;;;;5072049;28;20044;-80
2022/09/05 04:21:00;;;;;;;3.78;2.67;;;16.80;89.40;;;;;;5072015;28;20524;-80
2022/09/05 04:23:58;;;;;;;4.00;2.63;;;16.80;90.20;;;;;;5054890;28;20052;-80
2022/09/05 04:26:45;;;;;;;4.00;2.65;;;16.80;90.20;;;;;;5105559;28;20097;-80
2022/09/05 04:29:28;;;;;;;4.25;2.95;;;16.70;90.10;;;;;;5088691;28;20037;-80
2022/09/05 04:32:01;;;;;;;3.63;2.28;;;16.70;90.30;;;;;;5071644;28;20502;-80
2022/09/05 04:34:37;;;;;;;3.80;2.70;;;16.60;90.10;;;;;;5071721;28;20128;-80
2022/09/05 04:37:06;;;;;;;5.40;2.50;;;16.60;90.30;;;;;;5055176;28;20063;-80
2022/09/05 04:39:33;;;;;;;3.22;2.05;;;16.60;90.20;;;;;;5054703;28;20075;-80
2022/09/05 04:42:23;;;;;;;4.15;2.47;;;16.60;90.30;;;;;;5105294;28;20048;-80
2022/09/05 04:44:55;;;;;;;3.88;3.05;;;16.50;90.80;;;;;;5071580;28;20044;-80
2022/09/05 04:47:35;;;;;;;3.65;2.67;;;16.50;90.50;;;;;;5070827;28;20048;-80
2022/09/05 04:50:15;;;;;;;4.05;2.50;;;16.50;90.60;;;;;;5071207;28;20462;-80
2022/09/05 04:52:53;;;;;;;3.90;2.67;;;16.50;90.90;;;;;;5054619;28;20043;-80
2022/09/05 04:55:26;;;;;;;4.88;2.67;;;16.40;90.70;;;;;;5071267;28;20048;-80
2022/09/05 04:58:23;;;;;;;3.70;2.63;;;16.40;90.70;;;;;;5105184;28;20131;-80
2022/09/05 05:01:05;;;;;;;4.97;3.15;;;16.40;90.90;;;;;;5071299;28;20825;-80
2022/09/05 05:03:33;;;;;;;4.97;2.65;;;16.40;90.90;;;;;;5088080;28;20033;-79
2022/09/05 05:06:08;;;;;;;4.20;2.83;;;16.40;90.70;;;;;;5071069;28;20042;-79
2022/09/05 05:08:43;;;;;;;4.45;2.70;;;16.40;90.80;;;;;;5104471;28;20121;-79
2022/09/05 05:11:40;;;;;;;4.28;2.88;;;16.40;90.90;;;;;;5105067;28;20051;-80
2022/09/05 05:14:15;;;;;;;5.72;2.53;;;16.30;91.10;;;;;;5054542;28;20131;-80
2022/09/05 05:16:50;;;;;;;4.00;2.60;;;16.30;91.00;;;;;;5104970;28;20055;-80
2022/09/05 05:19:24;;;;;;;3.83;2.77;;;16.30;91.10;;;;;;5054458;28;20032;-80
2022/09/05 05:21:57;;;;;;;4.38;2.92;;;16.30;91.10;;;;;;5104286;28;20066;-80
2022/09/05 05:24:42;;;;;;;5.00;3.20;;;16.30;91.20;;;;;;5054031;28;20081;-80
2022/09/05 05:27:17;;;;;;;4.33;2.50;;;16.30;91.30;;;;;;5054163;28;20466;-80
2022/09/05 05:29:46;;;;;;;3.75;2.90;;;16.30;91.30;;;;;;5087624;28;20044;-80
2022/09/05 05:32:32;;;;;;;5.22;2.80;;;16.40;91.40;;;;;;5087256;28;20036;-80
2022/09/05 05:35:06;;;;;;;3.78;2.65;;;16.40;91.50;;;;;;5104688;28;20498;-80
2022/09/05 05:37:48;;;;;;;6.65;3.42;;;16.40;91.30;;;;;;5104809;28;20036;-80
2022/09/05 05:40:17;;;;;;;4.30;2.80;;;16.40;91.80;;;;;;5070612;28;20051;-80
2022/09/05 05:42:44;;;;;;;4.80;3.10;;;16.30;91.50;;;;;;5053938;28;20085;-80
2022/09/05 05:45:29;;;;;;;5.45;3.38;;;16.30;91.50;;;;;;5104179;28;20055;-80
2022/09/05 05:48:04;;;;;;;4.43;3.00;;;16.30;92.00;;;;;;5053418;28;20410;-80
2022/09/05 05:50:48;;;;;;;4.93;2.65;;;16.40;91.80;;;;;;5069876;28;20075;-80
2022/09/05 05:53:45;;;;;;;4.60;2.92;;;16.30;91.70;;;;;;5070345;28;20048;-81
2022/09/05 05:56:38;;;;;;;4.80;2.92;;;16.40;92.30;;;;;;5070245;28;20040;-80
2022/09/05 05:59:38;;;;;;;4.88;3.47;;;16.40;92.10;;;;;;5069143;28;20215;-80
2022/09/05 06:02:18;;;;;;;4.43;3.05;;;16.40;92.40;;;;;;5086967;28;20433;-80
2022/09/05 06:04:52;;;;;;;4.70;3.10;;;16.40;92.30;;;;;;5069733;28;20105;-80
2022/09/05 06:07:29;;;;;;;4.95;2.90;;;16.40;92.00;;;;;;5069691;28;20043;-80
2022/09/05 06:10:16;;;;;;;4.68;3.25;;;16.50;92.20;;;;;;5069618;28;20600;-80
2022/09/05 06:13:28;;;;;;;4.82;3.25;;;16.50;92.40;;;;;;5069560;28;20127;-80
2022/09/05 06:16:12;;;;;;;4.55;3.13;;;16.50;92.70;;;;;;5069813;28;20420;-80
2022/09/05 06:18:55;;;;;;;4.25;3.30;;;16.60;92.00;;;;;;5069543;28;20086;-80
2022/09/05 06:21:53;;;;;;;4.13;2.78;;;16.60;92.30;;;;;;5053120;28;20521;-80
2022/09/05 06:24:56;;;;;;;7.60;3.63;;;16.60;92.70;;;;;;5086162;28;20441;-80
2022/09/05 06:27:47;;;;;;;4.78;3.10;;;16.70;92.50;;;;;;5069524;28;20048;-80
2022/09/05 06:30:19;;;;;;;5.00;3.17;;;16.70;92.60;;;;;;5086343;28;20041;-80
2022/09/05 06:33:18;;;;;;;4.00;3.08;;;16.80;92.10;;;;;;5069343;28;20078;-80
2022/09/05 06:35:53;;;;;;;3.63;2.67;;;16.80;91.90;;;;;;5020444;28;20533;-80
2022/09/05 06:38:26;;;;;;;4.55;3.47;;;16.80;91.90;;;;;;5069086;28;20072;-80
2022/09/05 06:41:03;;;;;;;5.03;3.58;;;16.90;91.90;;;;;;5086284;28;20044;-80
2022/09/05 06:44:07;;;;;;;4.85;3.35;;;17.00;91.90;;;;;;5103306;28;20214;-80
2022/09/05 06:46:39;;;;;;;5.13;3.38;;;17.00;92.20;;;;;;5069073;28;20094;-80
2022/09/05 06:49:16;;;;;;;5.47;3.45;;;17.10;91.80;;;;;;5069153;28;20048;-80
2022/09/05 06:52:20;;;;;;;7.05;3.65;;;17.10;91.70;;;;;;5052595;28;20040;-80
2022/09/05 06:55:23;;;;;;;5.65;3.53;;;17.20;92.30;;;;;;5069059;28;20040;-80
2022/09/05 06:58:14;;;;;;;5.22;3.15;;;17.20;92.20;;;;;;5052264;28;20040;-80
2022/09/05 07:00:45;;;;;;;3.88;2.55;;;17.30;91.90;;;;;;5068965;28;20047;-80
2022/09/05 07:03:50;;;;;;;5.95;2.95;;;17.40;91.80;;;;;;5068791;28;20544;-80
2022/09/05 07:06:24;;;;;;;5.20;2.95;;;17.40;92.10;;;;;;5051949;28;20040;-80
2022/09/05 07:09:25;;;;;;;4.77;3.10;;;17.50;91.80;;;;;;5068767;28;20037;-81
2022/09/05 07:12:20;;;;;;;4.50;2.53;;;17.60;92.00;;;;;;5060895;28;20048;-80
2022/09/05 07:15:13;;;;;;;4.90;2.97;;;17.60;91.70;;;;;;5069029;28;20094;-80
2022/09/05 07:17:54;;;;;;;6.15;3.47;;;17.70;92.00;;;;;;5102572;28;20049;-80
2022/09/05 07:20:34;;;;;;;5.40;2.90;;;17.80;91.50;;;;;;5102844;28;20040;-80
2022/09/05 07:23:06;;;;;;;6.07;3.08;;;17.80;91.50;;;;;;5051598;28;20113;-80
2022/09/05 07:25:32;;;;;;;5.25;3.20;;;17.90;91.40;;;;;;5102748;28;20049;-80
2022/09/05 07:28:11;;;;;;;5.78;2.88;;;17.90;91.40;;;;;;5068727;28;20489;-80
2022/09/05 07:30:39;;;;;;;4.38;2.72;;;17.90;91.50;;;;;;5068701;28;20037;-81
2022/09/05 07:33:05;;;;;;;4.25;3.10;;;18.00;91.40;;;;;;5102555;28;20551;-80
2022/09/05 07:35:34;;;;;;;5.18;3.00;;;18.00;91.50;;;;;;5085750;28;20794;-80
2022/09/05 07:38:21;;;;;;;5.80;3.15;;;18.00;91.50;;;;;;5102535;28;20039;-80
2022/09/05 07:40:56;;;;;;;4.22;2.67;;;18.10;91.50;;;;;;5102402;28;20068;-80
2022/09/05 07:43:34;;;;;;;5.28;2.70;;;18.20;91.50;;;;;;5052179;28;20395;-80
2022/09/05 07:46:00;;;;;;;4.72;3.42;;;18.30;91.70;;;;;;5051734;28;20116;-81
2022/09/05 07:48:34;;;;;;;5.10;3.20;;;18.40;91.30;;;;;;5051735;28;20037;-80
2022/09/05 07:51:04;;;;;;;4.53;3.10;;;18.50;91.40;;;;;;5068271;28;20048;-80
2022/09/05 07:53:30;;;;;;;5.03;3.30;;;18.60;91.30;;;;;;5052018;28;20044;-80
2022/09/05 07:55:59;;;;;;;4.78;2.95;;;18.60;91.30;;;;;;5102294;28;20041;-80
2022/09/05 07:58:40;;;;;;;3.70;2.70;;;18.70;91.30;;;;;;5051589;28;20040;-80
2022/09/05 08:01:09;;;;;;;4.95;3.22;;;18.70;91.50;;;;;;5102223;28;20044;-80
2022/09/05 08:03:35;;;;;;;4.47;2.80;;;18.80;91.30;;;;;;5101751;28;20086;-80
2022/09/05 08:06:05;;;;;;;4.68;2.45;;;18.80;91.20;;;;;;5068597;28;20425;-80
2022/09/05 08:08:49;;;;;;;3.90;2.50;;;18.90;91.30;;;;;;5051434;28;20379;-81
2022/09/05 08:11:17;;;;;;;4.25;2.70;;;19.00;91.60;;;;;;5068640;28;20135;-80
2022/09/05 08:13:57;;;;;;;4.45;2.75;;;19.00;91.70;;;;;;5051653;28;20414;-80
2022/09/05 08:16:24;;;;;;;4.28;3.08;;;19.10;91.40;;;;;;5101957;28;20098;-80
2022/09/05 08:19:25;;;;;;;3.38;2.40;;;19.20;91.30;;;;;;5069616;28;20053;-80
2022/09/05 08:21:53;;;;;;;5.25;2.75;;;19.20;91.40;;;;;;5069016;28;20085;-81
2022/09/05 08:24:39;;;;;;;3.97;2.80;;;19.30;91.20;;;;;;5071536;28;20066;-80
2022/09/05 08:27:11;;;;;;;;;;;19.40;91.20;;;;;;5072426;28;20155;-80
2022/09/05 08:29:47;;;;;;;5.45;3.00;;;19.40;91.90;;;;;;5055146;28;19920;-80
2022/09/05 08:32:21;;;;;;;4.57;2.78;;;19.50;91.30;;;;;;5055271;28;20078;-80
2022/09/05 08:35:01;;;;;;;4.20;2.72;;;19.60;91.00;;;;;;5071818;28;20420;-80
2022/09/05 08:37:30;;;;;;;4.15;3.05;;;19.60;91.00;;;;;;5071906;28;20079;-80
2022/09/05 08:40:07;;;;;;;4.78;2.88;;;19.70;91.00;;;;;;5071545;28;20037;-80
2022/09/05 08:42:47;;;;;;;4.53;3.15;;;19.70;91.00;;;;;;5105792;28;20064;-80
2022/09/05 08:45:38;;;;;;;4.22;2.80;;;19.80;90.90;;;;;;5071365;28;20512;-80
2022/09/05 08:48:29;;;;;;;4.57;2.40;;;19.90;90.90;;;;;;5071605;28;20056;-80
2022/09/05 08:50:54;;;;;;;4.65;3.03;;;19.90;90.80;;;;;;5088477;28;20398;-80
2022/09/05 08:53:43;;;;;;;3.58;2.67;;;20.00;90.80;;;;;;5071412;28;20040;-80
2022/09/05 08:56:26;;;;;;;3.78;2.25;;;20.00;90.80;;;;;;5072587;28;20090;-80
2022/09/05 08:58:51;;;;;;;3.58;2.10;;;20.10;90.90;;;;;;5071343;28;20048;-80
2022/09/05 09:01:32;;;;;;;4.78;2.22;;;20.10;90.80;;;;;;5088333;28;20043;-80
2022/09/05 09:04:23;;;;;;;3.42;2.13;;;20.20;91.00;;;;;;5104990;28;20048;-80
2022/09/05 09:07:27;;;;;;;4.55;2.50;;;20.30;91.20;;;;;;5071359;28;20067;-80
2022/09/05 09:10:14;;;;;;;4.60;2.42;;;20.40;91.00;;;;;;5051355;28;20048;-80
2022/09/05 09:12:52;;;;;;;3.70;2.47;;;20.40;90.90;;;;;;5071055;28;20143;-80
2022/09/05 09:15:48;;;;;;;4.50;2.60;;;20.50;90.80;;;;;;5087978;28;20376;-80
2022/09/05 09:18:18;;;;;;;3.53;2.20;;;20.60;90.90;;;;;;5071046;28;20045;-80
2022/09/05 09:21:10;;;;;;;3.92;2.40;;;20.60;90.70;;;;;;5054211;28;20059;-80
2022/09/05 09:24:27;;;;;;;4.80;2.92;;;20.70;90.70;;;;;;5104443;28;20057;-80
2022/09/05 09:27:01;;;;;;;3.78;2.42;;;20.70;90.70;;;;;;5036926;28;20135;-80
2022/09/05 09:29:33;;;;;;;3.03;1.95;;;20.80;90.60;;;;;;5104398;28;20443;-80
2022/09/05 09:32:20;;;;;;;4.07;2.58;;;20.90;90.60;;;;;;5104676;28;20402;-80
2022/09/05 09:35:06;;;;;;;2.92;2.10;;;20.90;90.30;;;;;;5053925;28;20040;-79
2022/09/05 09:37:50;;;;;;;;;;;21.10;90.20;;;;;;5054511;28;20473;-80
2022/09/05 09:40:33;;;;;;;3.95;2.17;;;21.20;89.80;;;;;;5087738;28;19977;-80
2022/09/05 09:43:04;;;;;;;4.10;2.10;;;21.20;89.70;;;;;;5070726;28;20402;-80
2022/09/05 09:46:08;;;;;;;4.50;2.63;;;21.30;89.80;;;;;;5104433;28;20501;-80
2022/09/05 09:48:59;;;;;;;3.88;2.28;;;21.40;89.90;;;;;;5070207;28;20087;-80
2022/09/05 09:51:38;;;;;;;3.35;2.30;;;21.40;89.60;;;;;;5070261;28;20592;-80
2022/09/05 09:54:42;;;;;;;3.67;2.30;;;21.40;89.50;;;;;;5103650;28;20041;-80
2022/09/05 09:57:31;;;;;;;3.55;1.80;;;21.50;89.30;;;;;;5047159;28;20056;-80
2022/09/05 10:00:06;;;;;;;3.30;2.05;;;21.50;89.30;;;;;;5104003;28;20525;-80
2022/09/05 10:02:50;;;;;;;3.40;2.17;;;21.60;89.50;;;;;;5103474;28;20309;-80
2022/09/05 10:05:48;;;;;;;2.33;1.58;;;21.70;89.20;;;;;;5053544;28;20135;-80
2022/09/05 10:08:42;;;;;;;3.25;1.95;;;21.80;87.60;;;;;;5070342;28;20496;-80
2022/09/05 10:11:19;;;;;;;2.90;1.92;;;21.90;87.80;;;;;;5053099;28;20063;-79
2022/09/05 10:14:11;;;;;;;2.42;1.50;;;21.90;87.60;;;;;;5070048;28;20095;-80
2022/09/05 10:17:02;;;;;;;3.55;1.70;;;22.10;87.50;;;;;;5103766;28;20077;-80
2022/09/05 10:19:43;;;;;;;3.58;2.15;;;22.10;87.80;;;;;;5069592;28;20037;-80
2022/09/05 10:22:53;;;;;;;3.20;1.95;;;22.10;87.30;;;;;;5086762;28;20394;-80
2022/09/05 10:25:30;;;;;;;2.22;1.33;;;22.20;86.70;;;;;;5053865;28;20045;-80
2022/09/05 10:28:12;;;;;;;4.45;1.63;;;22.20;87.10;;;;;;5069878;28;20111;-80
2022/09/05 10:31:01;;;;;;;1.92;1.15;;;22.20;87.20;;;;;;5069450;28;20041;-79
2022/09/05 10:33:37;;;;;;;2.03;1.38;;;22.30;86.70;;;;;;5052723;28;20052;-80
2022/09/05 10:36:08;;;;;;;2.23;1.43;;;22.40;86.00;;;;;;5069274;28;20075;-80
2022/09/05 10:38:41;;;;;;;2.97;1.65;;;22.50;85.90;;;;;;5069100;28;20845;-80
2022/09/05 10:41:12;;;;;;;4.00;1.92;;;22.50;85.30;;;;;;5103166;28;20090;-80
2022/09/05 10:44:03;;;;;;;3.38;1.80;;;22.60;85.10;;;;;;5102964;28;20047;-80
2022/09/05 10:46:47;;;;;;;2.70;1.70;;;22.60;84.80;;;;;;5070082;28;20040;-80
2022/09/05 10:49:14;;;;;;;2.80;1.73;;;22.60;85.00;;;;;;5052632;28;20080;-80
2022/09/05 10:52:01;;;;;;;2.80;1.73;;;22.70;84.80;;;;;;5103110;28;20123;-80
2022/09/05 10:54:57;;;;;;;3.42;1.65;;;22.70;83.80;;;;;;5102715;28;20062;-80
2022/09/05 10:57:44;;;;;;;2.97;1.70;;;22.80;83.30;;;;;;5052326;28;20513;-79
2022/09/05 11:00:50;;;;;;;3.67;1.60;;;22.80;83.70;;;;;;5069155;28;20127;-79
2022/09/05 11:03:23;;;;;;;2.20;1.40;;;22.90;82.70;;;;;;5069252;28;20078;-79
2022/09/05 11:05:58;;;;;;;3.03;1.63;;;22.90;82.80;;;;;;5102965;28;20148;-79
2022/09/05 11:08:48;;;;;;;4.07;1.52;;;23.00;82.40;;;;;;5052613;28;20058;-79
2022/09/05 11:11:21;;;;;;;3.42;1.50;;;23.00;81.80;;;;;;5068915;28;20064;-80
2022/09/05 11:13:57;;;;;;;3.67;2.08;;;23.00;82.40;;;;;;5052513;28;20066;-79
2022/09/05 11:16:26;;;;;;;2.08;1.35;;;23.00;82.10;;;;;;5069013;28;20397;-79
2022/09/05 11:18:59;;;;;;;3.10;2.00;;;23.10;81.70;;;;;;5069231;28;20398;-79
2022/09/05 11:21:53;;;;;;;2.63;1.60;;;23.10;81.50;;;;;;5052376;28;20063;-79
2022/09/05 11:24:28;;;;;;;2.40;1.58;;;23.10;79.60;;;;;;5068621;28;20569;-79
2022/09/05 11:26:59;;;;;;;2.90;1.58;;;23.20;80.90;;;;;;5068804;28;20047;-79
2022/09/05 11:29:45;;;;;;;2.33;1.52;;;23.30;80.50;;;;;;5052288;28;20186;-79
2022/09/05 11:32:24;;;;;;;2.67;1.70;;;23.30;80.40;;;;;;5102696;28;20275;-79
2022/09/05 11:35:06;;;;;;;2.65;1.30;;;23.30;79.60;;;;;;5068932;28;20428;-79
2022/09/05 11:38:08;;;;;;;2.42;1.42;;;23.40;79.00;;;;;;5068770;28;20390;-79
2022/09/05 11:40:36;;;;;;;1.65;1.10;;;23.40;78.10;;;;;;5085668;28;20451;-79
2022/09/05 11:43:11;;;;;;;2.10;1.20;;;23.50;79.20;;;;;;5085628;28;20127;-79
2022/09/05 11:46:03;;;;;;;5.63;1.43;;;23.50;79.60;;;;;;5085517;28;20044;-79
2022/09/05 11:48:54;;;;;;;3.03;1.08;;;23.60;76.90;;;;;;5045421;28;20282;-79
2022/09/05 11:51:53;;;;;;;2.25;1.30;;;23.80;77.70;;;;;;5085569;28;20494;-79
2022/09/05 11:54:53;;;;;;;3.38;1.40;;;23.90;77.00;;;;;;5068406;28;20040;-79
2022/09/05 11:57:52;;;;;;;2.10;1.38;;;24.00;76.40;;;;;;5053159;28;20075;-79
2022/09/05 12:00:31;;;;;;;1.73;1.10;;;24.10;75.40;;;;;;5072796;28;20052;-79
2022/09/05 12:03:44;;;;;;;2.15;1.58;;;24.00;76.40;;;;;;5072439;28;20642;-79
2022/09/05 12:06:15;;;;;;;2.30;1.30;;;24.00;75.40;;;;;;5072023;28;20051;-79
2022/09/05 12:08:49;;;;;;;1.33;0.85;;;24.00;76.70;;;;;;5089004;28;20092;-79
2022/09/05 12:11:37;;;;;;;2.17;1.37;;;23.90;75.60;;;;;;5089365;28;20145;-79
2022/09/05 12:14:32;;;;;;;2.88;1.40;;;23.90;76.40;;;;;;5072268;28;20041;-79
2022/09/05 12:17:27;;;;;;;1.93;1.20;;;23.80;75.40;;;;;;5072010;28;20056;-79
2022/09/05 12:20:10;;;;;;;2.63;0.95;;;23.80;74.10;;;;;;5055160;28;20091;-79
2022/09/05 12:22:38;;;;;;;2.35;1.40;;;23.70;75.80;;;;;;5071805;28;20147;-78
2022/09/05 12:25:32;;;;;;;2.40;1.30;;;23.70;75.80;;;;;;5105966;28;20053;-79
2022/09/05 12:28:06;;;;;;;2.13;1.20;;;23.70;74.50;;;;;;5055022;28;20478;-79
2022/09/05 12:30:40;;;;;;;1.85;1.00;;;23.70;75.50;;;;;;5054976;28;20063;-79
2022/09/05 12:33:21;;;;;;;2.08;1.30;;;23.70;75.30;;;;;;5071792;28;20032;-79
2022/09/05 12:36:21;;;;;;;2.65;1.73;;;23.60;74.90;;;;;;5071891;28;20033;-79
2022/09/05 12:39:30;;;;;;;1.90;1.15;;;23.70;74.70;;;;;;5071769;28;20029;-79
2022/09/05 12:42:17;;;;;;;1.65;1.00;;;23.60;74.20;;;;;;5061102;28;20500;-79
2022/09/05 12:45:19;;;;;;;3.53;1.40;;;23.60;75.30;;;;;;5105502;28;20123;-79
2022/09/05 12:47:51;;;;;;;2.60;1.30;;;23.70;74.80;;;;;;5105422;28;20047;-79
2022/09/05 12:50:19;;;;;;;2.10;1.10;;;23.80;75.10;;;;;;5105321;28;20048;-79
2022/09/05 12:52:49;;;;;;;2.45;1.25;;;23.80;74.60;;;;;;5071543;28;20040;-79
2022/09/05 12:55:35;;;;;;;1.92;1.20;;;23.90;73.70;;;;;;5105160;28;20504;-79
2022/09/05 12:58:10;;;;;;;1.90;1.00;;;23.80;72.60;;;;;;5054837;28;20041;-79
2022/09/05 13:00:43;;;;;;;1.73;1.00;;;23.90;73.70;;;;;;5071347;28;20052;-79
2022/09/05 13:03:22;;;;;;;2.00;0.90;;;23.80;72.80;;;;;;5054599;28;20048;-79
2022/09/05 13:06:13;;;;;;;1.80;1.23;;;23.80;73.10;;;;;;5070904;28;20123;-79
2022/09/05 13:08:46;;;;;;;1.90;1.00;;;23.80;73.00;;;;;;5070545;28;20090;-79
2022/09/05 13:11:16;;;;;;;1.30;0.95;;;23.80;73.60;;;;;;5070888;28;20040;-79
2022/09/05 13:13:56;;;;;;;1.48;1.00;;;23.80;73.60;;;;;;5104903;28;20037;-78
2022/09/05 13:16:28;;;;;;;2.38;1.40;;;23.80;73.00;;;;;;5070903;28;20044;-79
2022/09/05 13:19:06;;;;;;;1.80;1.20;;;23.90;73.20;;;;;;5104763;28;20051;-79
2022/09/05 13:21:36;;;;;;;1.63;1.02;;;24.10;72.30;;;;;;5104711;28;20052;-79
2022/09/05 13:24:17;;;;;;;1.77;1.00;;;24.00;72.40;;;;;;5053795;28;20106;-79
2022/09/05 13:26:54;;;;;;;1.35;0.80;;;24.10;71.70;;;;;;5104671;28;20048;-79
2022/09/05 13:29:24;;;;;;;1.60;0.95;;;24.20;70.90;;;;;;5104654;28;20040;-79
2022/09/05 13:31:52;;;;;;;1.58;0.90;;;24.30;71.50;;;;;;5054161;28;20062;-79
2022/09/05 13:34:42;;;;;;;1.45;0.80;;;24.40;71.00;;;;;;5104553;28;20047;-79
2022/09/05 13:37:15;;;;;;;1.50;0.90;;;24.50;69.10;;;;;;5104190;28;20328;-79
2022/09/05 13:40:02;;;;;;;1.95;0.93;;;24.60;69.40;;;;;;5104392;28;20044;-79
2022/09/05 13:42:37;;;;;;;1.40;0.90;;;24.60;67.20;;;;;;5053786;28;20056;-79
2022/09/05 13:45:04;;;;;;;2.33;1.10;;;24.70;68.40;;;;;;5070388;28;20163;-79
2022/09/05 13:47:59;;;;;;;1.20;0.80;;;24.80;68.40;;;;;;5104020;28;20056;-79
2022/09/05 13:50:37;;;;;;;1.80;0.90;;;24.90;66.70;;;;;;5070358;28;20041;-79
2022/09/05 13:53:25;;;;;;;1.60;1.00;;;24.90;68.20;;;;;;5070528;28;20133;-79
2022/09/05 13:56:01;;;;;;;1.83;0.85;;;24.90;68.10;;;;;;5069957;28;20112;-79
2022/09/05 13:58:41;;;;;;;1.63;1.00;;;25.00;67.80;;;;;;5053149;28;20037;-79
2022/09/05 14:01:32;;;;;;;1.33;0.90;;;25.00;67.50;;;;;;5053272;28;20051;-79
2022/09/05 14:04:25;;;;;;;1.58;1.05;;;25.00;66.30;;;;;;5069834;28;20044;-79